Time;durP1;ratioP1;P1;durP2;ratioP2;P2;SDS_P1;SDS_P2;PMS_P1;PMS_P2;Temp;Humidity;BMP_temperature;BMP_pressure;BME280_temperature;BME280_humidity;BME280_pressure;Samples;Min_cycle;Max_cycle;Signal;HPM_P1;HPM_P2
2022/08/06 00:02:23;;;;;;;55.52;38.15;;;;;;;17.96;100.00;99312.15;1717414;82;20940;-71
2022/08/06 00:04:50;;;;;;;55.15;37.60;;;;;;;17.95;100.00;99307.81;1704082;83;20938;-71
2022/08/06 00:07:18;;;;;;;47.93;33.00;;;;;;;17.93;100.00;99307.34;1728520;81;27499;-71
2022/08/06 00:09:44;;;;;;;50.75;33.05;;;;;;;17.97;100.00;99315.10;1727677;81;21322;-71
2022/08/06 00:12:11;;;;;;;47.05;33.83;;;;;;;18.03;100.00;99312.26;1725462;81;20908;-71
2022/08/06 00:14:38;;;;;;;49.18;35.35;;;;;;;17.99;100.00;99318.88;1718707;82;21451;-71
2022/08/06 00:17:05;;;;;;;63.42;42.95;;;;;;;17.94;100.00;99313.01;1718090;82;20893;-71
2022/08/06 00:19:32;;;;;;;65.25;47.50;;;;;;;17.86;100.00;99306.97;1750587;80;20981;-71
2022/08/06 00:21:59;;;;;;;70.37;46.77;;;;;;;17.83;100.00;99305.41;1681607;85;21326;-71
2022/08/06 00:24:26;;;;;;;79.97;48.48;;;;;;;17.77;100.00;99305.50;1720195;82;21099;-72
2022/08/06 00:26:52;;;;;;;64.50;44.48;;;;;;;17.70;100.00;99298.34;1720088;82;20965;-72
2022/08/06 00:29:20;;;;;;;62.55;42.55;;;;;;;17.66;100.00;99290.55;1717988;82;20980;-72
2022/08/06 00:31:47;;;;;;;56.08;39.70;;;;;;;17.61;100.00;99296.10;1720937;82;21062;-72
2022/08/06 00:34:13;;;;;;;57.55;39.20;;;;;;;17.63;100.00;99297.16;1717371;82;21151;-72
2022/08/06 00:36:40;;;;;;;54.55;37.03;;;;;;;17.65;100.00;99308.52;1679731;85;21064;-72
2022/08/06 00:39:07;;;;;;;43.68;32.03;;;;;;;17.64;100.00;99313.15;1727257;81;20895;-72
2022/08/06 00:41:34;;;;;;;39.35;30.97;;;;;;;17.69;100.00;99310.88;1727771;81;20904;-72
2022/08/06 00:44:03;;;;;;;45.00;31.23;;;;;;;17.77;100.00;99308.78;1707386;83;21008;-72
2022/08/06 00:46:30;;;;;;;42.73;33.42;;;;;;;17.79;100.00;99307.36;1718311;82;21317;-72
2022/08/06 00:48:58;;;;;;;45.83;31.52;;;;;;;17.85;100.00;99314.05;1719707;82;21457;-72
2022/08/06 00:51:25;;;;;;;47.93;35.03;;;;;;;17.86;100.00;99311.05;1718312;82;21378;-73
2022/08/06 00:53:52;;;;;;;54.00;38.88;;;;;;;17.88;100.00;99305.28;1718297;82;20857;-73
2022/08/06 00:56:19;;;;;;;59.73;39.85;;;;;;;17.86;100.00;99305.61;1718414;82;20917;-72
2022/08/06 00:58:45;;;;;;;55.05;37.38;;;;;;;17.86;100.00;99313.76;1718066;82;21250;-72
2022/08/06 01:01:12;;;;;;;57.60;37.13;;;;;;;17.85;100.00;99322.20;1678541;85;21050;-72
2022/08/06 01:03:39;;;;;;;46.25;34.55;;;;;;;17.84;100.00;99316.53;1721746;82;21605;-73
2022/08/06 01:06:06;;;;;;;41.98;33.55;;;;;;;17.88;100.00;99317.50;1683162;85;20878;-72
2022/08/06 01:08:33;;;;;;;46.88;34.55;;;;;;;17.87;100.00;99323.50;1728545;81;20979;-72
2022/08/06 01:11:00;;;;;;;36.93;30.70;;;;;;;17.87;100.00;99318.06;1726971;81;21313;-72
2022/08/06 01:13:27;;;;;;;39.15;31.68;;;;;;;17.86;100.00;99320.55;1725741;81;20892;-72
2022/08/06 01:16:26;;;;;;;35.17;29.32;;;;;;;17.90;100.00;99323.44;1729314;81;20937;-73
2022/08/06 01:19:01;;;;;;;36.03;30.17;;;;;;;17.96;100.00;99323.58;1718851;82;20931;-72
2022/08/06 01:21:34;;;;;;;35.63;28.73;;;;;;;17.98;100.00;99324.88;1681496;85;20870;-72
2022/08/06 01:24:06;;;;;;;34.08;30.20;;;;;;;18.01;100.00;99330.23;1719146;82;21260;-72
2022/08/06 01:26:50;;;;;;;34.13;28.90;;;;;;;18.08;100.00;99325.71;1708043;82;21188;-71
2022/08/06 01:29:27;;;;;;;31.60;28.20;;;;;;;18.01;100.00;99331.59;1719067;82;20996;-72
2022/08/06 01:32:11;;;;;;;33.80;28.20;;;;;;;17.96;100.00;99322.22;1719518;82;20900;-72
2022/08/06 01:34:42;;;;;;;33.13;27.70;;;;;;;17.94;100.00;99332.58;1681763;85;21013;-72
2022/08/06 01:37:24;;;;;;;34.48;28.23;;;;;;;17.90;100.00;99328.30;1728116;81;21269;-73
2022/08/06 01:39:55;;;;;;;30.70;27.50;;;;;;;17.89;100.00;99329.98;1725875;81;21160;-71
2022/08/06 01:42:22;;;;;;;32.80;27.70;;;;;;;17.86;100.00;99344.16;1727967;81;20935;-72
2022/08/06 01:44:49;;;;;;;30.05;26.87;;;;;;;17.83;100.00;99334.71;1677798;82;21489;-72
2022/08/06 01:47:18;;;;;;;32.20;28.73;;;;;;;17.80;100.00;99336.69;1728126;81;21007;-71
2022/08/06 01:49:50;;;;;;;31.45;28.23;;;;;;;17.84;100.00;99340.41;1726725;81;21139;-72
2022/08/06 01:52:17;;;;;;;35.48;27.22;;;;;;;17.80;100.00;99340.77;1753992;80;20963;-72
2022/08/06 01:54:47;;;;;;;33.28;28.38;;;;;;;17.81;100.00;99345.63;1729301;81;21141;-72
2022/08/06 01:57:16;;;;;;;31.57;28.25;;;;;;;17.78;100.00;99338.34;1722194;82;21466;-73
2022/08/06 01:59:46;;;;;;;32.75;27.17;;;;;;;17.76;100.00;99341.09;1682257;85;20930;-72
2022/08/06 02:02:18;;;;;;;35.35;29.18;;;;;;;17.76;100.00;99337.84;1720694;81;21231;-72
2022/08/06 02:04:46;;;;;;;33.38;29.12;;;;;;;17.75;100.00;99340.85;1726788;81;20916;-72
2022/08/06 02:07:15;;;;;;;32.23;28.83;;;;;;;17.75;100.00;99348.44;1724628;81;21708;-72
2022/08/06 02:09:42;;;;;;;;;;;;;;;17.72;100.00;99344.19;1720130;82;22257;-73
2022/08/06 02:12:13;;;;;;;33.20;27.48;;;;;;;17.73;100.00;99348.49;1718413;82;20119;-72
2022/08/06 02:14:58;;;;;;;39.55;28.38;;;;;;;17.70;100.00;99345.84;1717637;82;21419;-73
2022/08/06 02:17:28;;;;;;;34.55;29.32;;;;;;;17.68;100.00;99351.32;1719643;82;20845;-71
2022/08/06 02:19:59;;;;;;;32.20;28.75;;;;;;;17.65;100.00;99344.59;1680736;85;21471;-70
2022/08/06 02:22:24;;;;;;;31.62;28.27;;;;;;;17.65;100.00;99351.38;1728033;81;20845;-70
2022/08/06 02:24:50;;;;;;;35.98;30.50;;;;;;;17.61;100.00;99349.02;1730808;81;20948;-71
2022/08/06 02:27:17;;;;;;;33.80;29.18;;;;;;;17.60;100.00;99350.14;1729611;81;21449;-71
2022/08/06 02:29:44;;;;;;;30.20;27.02;;;;;;;17.59;100.00;99348.55;1726570;81;20941;-71
2022/08/06 02:32:13;;;;;;;31.33;27.60;;;;;;;17.57;100.00;99350.76;1725442;81;21141;-71
2022/08/06 02:34:40;;;;;;;31.30;27.95;;;;;;;17.58;100.00;99345.56;1729136;81;21011;-71
2022/08/06 02:37:11;;;;;;;31.23;27.98;;;;;;;17.57;100.00;99352.11;1719896;82;21034;-71
2022/08/06 02:39:51;;;;;;;32.05;28.38;;;;;;;17.58;100.00;99352.34;1655913;85;21508;-70
2022/08/06 02:42:31;;;;;;;35.58;28.70;;;;;;;17.54;100.00;99344.03;1720283;82;21064;-70
2022/08/06 02:45:06;;;;;;;39.23;27.82;;;;;;;17.55;100.00;99348.34;1678930;85;21486;-71
2022/08/06 02:47:53;;;;;;;31.57;28.17;;;;;;;17.55;100.00;99355.13;1718772;82;21045;-71
2022/08/06 02:50:22;;;;;;;31.63;28.07;;;;;;;17.54;100.00;99351.34;1718510;82;20968;-71
2022/08/06 02:52:58;;;;;;;31.52;28.12;;;;;;;17.54;100.00;99354.88;1674591;85;21164;-70
2022/08/06 02:55:30;;;;;;;32.30;28.98;;;;;;;17.58;100.00;99359.13;1727799;81;20940;-71
2022/08/06 02:58:01;;;;;;;32.17;28.75;;;;;;;17.57;100.00;99357.55;1727179;81;21007;-70
2022/08/06 03:00:28;;;;;;;32.38;28.85;;;;;;;17.59;100.00;99362.11;1718450;82;20905;-70
2022/08/06 03:02:58;;;;;;;34.18;30.20;;;;;;;17.60;100.00;99366.42;1719373;82;20944;-70
2022/08/06 03:05:24;;;;;;;33.15;29.30;;;;;;;17.65;100.00;99363.59;1719975;82;21967;-70
2022/08/06 03:07:51;;;;;;;34.95;30.20;;;;;;;17.68;100.00;99367.61;1718657;82;20868;-71
2022/08/06 03:10:20;;;;;;;33.45;29.85;;;;;;;17.69;100.00;99369.23;1718546;82;21056;-73
2022/08/06 03:12:47;;;;;;;39.13;29.45;;;;;;;17.69;100.00;99368.67;1680327;85;21116;-71
2022/08/06 03:15:15;;;;;;;32.03;28.65;;;;;;;17.70;100.00;99371.62;1719111;82;20932;-71
2022/08/06 03:17:41;;;;;;;34.50;29.25;;;;;;;17.75;100.00;99368.00;1720211;82;21249;-71
2022/08/06 03:20:10;;;;;;;40.85;32.08;;;;;;;17.78;100.00;99362.77;1698466;82;21105;-71
2022/08/06 03:22:37;;;;;;;35.20;31.50;;;;;;;17.86;100.00;99368.59;1713501;82;20991;-71
2022/08/06 03:25:06;;;;;;;34.88;28.87;;;;;;;17.92;100.00;99375.52;1680441;85;20961;-70
2022/08/06 03:27:33;;;;;;;33.13;27.75;;;;;;;17.99;100.00;99378.62;1699571;81;21406;-71
2022/08/06 03:29:59;;;;;;;31.15;26.90;;;;;;;18.07;100.00;99375.16;1731023;81;21316;-71
2022/08/06 03:32:26;;;;;;;30.25;26.87;;;;;;;18.18;100.00;99372.45;1731446;81;20920;-71
2022/08/06 03:34:53;;;;;;;31.87;28.42;;;;;;;18.31;100.00;99372.70;1725667;81;20916;-71
2022/08/06 03:37:20;;;;;;;33.38;28.92;;;;;;;18.38;100.00;99373.87;1726722;81;20924;-71
2022/08/06 03:39:48;;;;;;;30.80;26.62;;;;;;;18.51;100.00;99377.62;1730278;81;20923;-71
2022/08/06 03:42:15;;;;;;;28.75;25.75;;;;;;;18.64;100.00;99376.75;1726908;81;21244;-72
2022/08/06 03:44:42;;;;;;;33.05;25.43;;;;;;;18.80;100.00;99380.45;1727804;81;20920;-71
2022/08/06 03:47:24;;;;;;;27.00;24.15;;;;;;;18.88;100.00;99378.32;1725184;81;20982;-71
2022/08/06 03:50:13;;;;;;;28.60;25.55;;;;;;;18.98;100.00;99374.53;1720082;81;21517;-73
2022/08/06 03:52:49;;;;;;;29.27;25.35;;;;;;;19.17;100.00;99375.64;1712691;82;20992;-71
2022/08/06 03:55:21;;;;;;;27.90;24.72;;;;;;;19.33;100.00;99379.55;1677412;85;21213;-72
2022/08/06 03:57:52;;;;;;;28.67;24.75;;;;;;;19.49;100.00;99383.97;1724145;81;21161;-72
2022/08/06 04:00:22;;;;;;;27.48;24.57;;;;;;;19.65;100.00;99379.69;1719044;82;20884;-74
2022/08/06 04:02:52;;;;;;;26.97;23.22;;;;;;;19.79;100.00;99386.36;1680560;85;20925;-71
2022/08/06 04:05:23;;;;;;;26.33;23.45;;;;;;;19.82;100.00;99384.38;1727843;81;36369;-72
2022/08/06 04:07:59;;;;;;;27.58;23.22;;;;;;;19.86;100.00;99383.97;1727926;81;21868;-73
2022/08/06 04:10:40;;;;;;;25.90;23.40;;;;;;;19.94;100.00;99392.46;1723066;81;20936;-71
2022/08/06 04:13:10;;;;;;;24.92;22.32;;;;;;;19.96;100.00;99388.86;1726286;81;21059;-73
2022/08/06 04:15:37;;;;;;;25.68;23.07;;;;;;;19.98;100.00;99386.63;1725432;81;20951;-72
2022/08/06 04:18:09;;;;;;;25.68;22.98;;;;;;;20.05;100.00;99385.59;1719504;82;21119;-71
2022/08/06 04:20:40;;;;;;;24.70;21.82;;;;;;;20.08;100.00;99391.75;1721047;82;21268;-72
2022/08/06 04:23:06;;;;;;;26.17;22.80;;;;;;;20.08;100.00;99393.91;1679359;85;20942;-73
2022/08/06 04:25:38;;;;;;;25.57;22.82;;;;;;;20.02;100.00;99397.13;1719201;82;20897;-70
2022/08/06 04:28:06;;;;;;;23.50;21.00;;;;;;;20.06;100.00;99397.53;1716949;82;20837;-73
2022/08/06 04:30:34;;;;;;;24.67;21.57;;;;;;;20.23;100.00;99399.42;1679543;85;21451;-72
2022/08/06 04:33:02;;;;;;;25.57;22.87;;;;;;;20.47;100.00;99391.31;1727149;81;21203;-73
2022/08/06 04:35:30;;;;;;;23.47;21.27;;;;;;;20.55;100.00;99397.33;1729142;81;21087;-72
2022/08/06 04:37:58;;;;;;;22.17;19.87;;;;;;;20.70;100.00;99390.56;1723945;81;20966;-72
2022/08/06 04:40:25;;;;;;;;;;;;;;;20.90;100.00;99394.53;1731942;81;22210;-72
2022/08/06 04:42:52;;;;;;;24.23;20.75;;;;;;;21.23;100.00;99396.64;1726551;81;20083;-72
2022/08/06 04:45:19;;;;;;;22.93;20.62;;;;;;;21.55;100.00;99397.36;1726055;81;21584;-72
2022/08/06 04:47:46;;;;;;;22.13;19.87;;;;;;;21.79;100.00;99404.92;1726957;81;20911;-72
2022/08/06 04:50:13;;;;;;;19.83;17.80;;;;;;;21.72;100.00;99407.37;1726942;81;20911;-72
2022/08/06 04:52:40;;;;;;;24.72;20.70;;;;;;;21.82;100.00;99409.72;1732586;81;20988;-72
2022/08/06 04:55:08;;;;;;;20.95;18.75;;;;;;;21.66;100.00;99410.66;1729280;81;21014;-73
2022/08/06 04:57:35;;;;;;;23.40;19.57;;;;;;;;;;1726814;81;21193;-71
2022/08/06 05:00:02;;;;;;;19.85;17.75;;;;;;;21.57;100.00;99411.49;1718778;82;21157;-74
2022/08/06 05:02:29;;;;;;;35.68;18.90;;;;;;;21.57;100.00;99414.22;1682771;85;21004;-72
2022/08/06 05:04:57;;;;;;;21.57;18.87;;;;;;;21.84;100.00;99414.28;1729816;81;20964;-72
2022/08/06 05:07:28;;;;;;;23.37;18.37;;;;;;;22.13;100.00;99411.84;1726053;81;20948;-71
2022/08/06 05:09:57;;;;;;;20.20;18.40;;;;;;;22.50;100.00;99414.75;1725386;81;21584;-72
2022/08/06 05:12:45;;;;;;;20.70;18.70;;;;;;;22.64;100.00;99422.09;1727033;81;20877;-73
2022/08/06 05:15:29;;;;;;;21.95;18.45;;;;;;;22.85;100.00;99431.02;1728194;81;20924;-73
2022/08/06 05:18:00;;;;;;;21.85;19.00;;;;;;;23.14;100.00;99432.02;1729955;81;20924;-72
2022/08/06 05:20:29;;;;;;;21.60;19.52;;;;;;;23.27;100.00;99435.56;1698045;82;20959;-71
2022/08/06 05:23:00;;;;;;;20.77;18.85;;;;;;;23.11;100.00;99429.97;1717617;82;21237;-73
2022/08/06 05:25:27;;;;;;;20.10;18.20;;;;;;;23.25;100.00;99435.92;1677213;85;21085;-71
2022/08/06 05:27:55;;;;;;;18.70;16.87;;;;;;;23.15;100.00;99440.48;1721881;81;20978;-74
2022/08/06 05:30:22;;;;;;;19.52;17.65;;;;;;;22.78;100.00;99438.98;1727358;81;21041;-73
2022/08/06 05:32:49;;;;;;;20.17;17.95;;;;;;;22.93;100.00;99444.41;1726982;81;20908;-71
2022/08/06 05:35:16;;;;;;;;;;;;;;;22.96;100.00;99445.66;1681083;85;21262;-71
2022/08/06 05:37:43;;;;;;;19.87;17.73;;;;;;;23.16;100.00;99444.80;1690795;83;20120;-73
2022/08/06 05:40:10;;;;;;;19.43;17.70;;;;;;;23.18;100.00;99443.11;1690111;83;21566;-72
2022/08/06 05:42:37;;;;;;;20.82;18.73;;;;;;;23.38;100.00;99446.88;1689988;83;20975;-71
2022/08/06 05:45:06;;;;;;;17.87;16.10;;;;;;;23.72;100.00;99457.36;1714001;83;21407;-72
2022/08/06 05:47:37;;;;;;;17.98;16.37;;;;;;;23.85;100.00;99460.13;1710659;83;21257;-72
2022/08/06 05:50:10;;;;;;;24.65;17.98;;;;;;;23.86;100.00;99459.78;1689065;83;20929;-72
2022/08/06 05:53:06;;;;;;;18.75;16.95;;;;;;;24.14;100.00;99459.03;1677833;83;21013;-72
2022/08/06 05:55:43;;;;;;;19.20;17.15;;;;;;;24.51;100.00;99459.73;1703968;81;21411;-73
2022/08/06 05:58:17;;;;;;;19.92;18.02;;;;;;;24.91;100.00;99456.67;1708829;83;20989;-73
2022/08/06 06:00:44;;;;;;;19.82;16.57;;;;;;;25.22;100.00;99457.31;1689998;83;21641;-72
2022/08/06 06:03:13;;;;;;;18.50;16.15;;;;;;;25.42;100.00;99452.11;1689363;83;20901;-74
2022/08/06 06:05:40;;;;;;;15.88;14.28;;;;;;;25.58;100.00;99449.36;1725411;81;21221;-74
2022/08/06 06:08:08;;;;;;;16.35;14.70;;;;;;;25.79;100.00;99456.49;1698930;81;21042;-73
2022/08/06 06:10:38;;;;;;;15.38;13.78;;;;;;;25.93;100.00;99451.94;1726765;81;21608;-74
2022/08/06 06:13:05;;;;;;;15.90;14.28;;;;;;;26.30;100.00;99458.61;1727881;81;21249;-74
2022/08/06 06:15:40;;;;;;;14.47;13.18;;;;;;;26.21;100.00;99458.05;1725520;81;20880;-69
2022/08/06 06:18:30;;;;;;;16.55;14.95;;;;;;;26.06;100.00;99459.67;1728733;81;21010;-72
2022/08/06 06:21:03;;;;;;;14.68;13.20;;;;;;;25.84;100.00;99461.13;1719095;82;21026;-73
2022/08/06 06:24:00;;;;;;;19.52;14.38;;;;;;;26.12;100.00;99451.96;1677504;85;20949;-72
2022/08/06 06:27:03;;;;;;;16.50;14.95;;;;;;;26.32;100.00;99455.52;1729412;81;21296;-72
2022/08/06 06:29:45;;;;;;;15.72;14.23;;;;;;;26.52;100.00;99461.22;1722858;81;21157;-73
2022/08/06 06:32:33;;;;;;;16.97;15.20;;;;;;;26.95;100.00;99461.28;1741144;81;20977;-75
2022/08/06 06:35:21;;;;;;;15.00;13.70;;;;;;;26.79;100.00;99457.23;1676216;85;21213;-74
2022/08/06 06:38:02;;;;;;;17.20;15.60;;;;;;;26.92;100.00;99460.61;1670973;85;20978;-73
2022/08/06 06:40:57;;;;;;;14.93;13.45;;;;;;;26.85;100.00;99460.48;1677319;85;21864;-74
2022/08/06 06:43:35;;;;;;;16.62;14.75;;;;;;;26.72;100.00;99451.59;1672576;85;20956;-74
2022/08/06 06:46:19;;;;;;;14.98;12.90;;;;;;;26.49;100.00;99452.32;1676185;85;21086;-74
2022/08/06 06:48:54;;;;;;;16.15;14.55;;;;;;;26.70;100.00;99443.72;1667387;85;21025;-75
2022/08/06 06:51:31;;;;;;;16.70;13.48;;;;;;;26.58;100.00;99444.44;1706330;83;21029;-75
2022/08/06 06:53:58;;;;;;;16.65;14.70;;;;;;;26.90;100.00;99443.09;1678298;85;21260;-74
2022/08/06 06:56:33;;;;;;;14.25;12.85;;;;;;;27.04;100.00;99441.74;1677588;85;22163;-75
2022/08/06 06:59:08;;;;;;;14.55;13.03;;;;;;;27.29;100.00;99440.25;1673429;84;20964;-76
2022/08/06 07:01:36;;;;;;;13.43;11.83;;;;;;;27.41;100.00;99445.33;1673992;85;21670;-73
2022/08/06 07:04:08;;;;;;;12.40;11.30;;;;;;;27.63;100.00;99447.23;1677605;85;20921;-73
2022/08/06 07:06:36;;;;;;;14.68;12.65;;;;;;;27.65;100.00;99434.47;1669266;85;21329;-72
2022/08/06 07:09:03;;;;;;;14.47;13.10;;;;;;;27.39;100.00;99444.34;1667720;84;20908;-73
2022/08/06 07:11:30;;;;;;;14.47;13.05;;;;;;;27.12;100.00;99444.27;1676479;84;20930;-74
2022/08/06 07:13:58;;;;;;;14.30;12.95;;;;;;;27.07;100.00;99437.69;1694505;83;21016;-75
2022/08/06 07:16:26;;;;;;;14.45;13.05;;;;;;;27.23;100.00;99435.41;1726312;81;20915;-73
2022/08/06 07:18:54;;;;;;;14.15;12.60;;;;;;;27.33;100.00;99430.64;1726800;81;21107;-72
2022/08/06 07:21:20;;;;;;;;;;;;;;;27.82;100.00;99429.83;1730883;81;21056;-74
2022/08/06 07:23:55;;;;;;;12.73;11.43;;;;;;;28.04;100.00;99433.66;1727775;81;20602;-72
2022/08/06 07:26:22;;;;;;;13.45;11.03;;;;;;;27.94;100.00;99439.25;1716500;82;20920;-73
2022/08/06 07:28:49;;;;;;;15.32;11.83;;;;;;;28.15;100.00;99439.31;1679493;85;20922;-73
2022/08/06 07:31:16;;;;;;;11.10;10.00;;;;;;;28.41;100.00;99448.90;1676770;82;21458;-74
2022/08/06 07:33:45;;;;;;;11.13;10.07;;;;;;;28.52;100.00;99453.80;1719934;82;21482;-73
2022/08/06 07:36:16;;;;;;;10.85;9.58;;;;;;;28.58;99.03;99458.59;1719230;82;20991;-73
2022/08/06 07:38:43;;;;;;;11.15;8.70;;;;;;;28.77;99.31;99459.00;1679992;85;21111;-72
2022/08/06 07:41:10;;;;;;;9.50;8.50;;;;;;;29.14;91.57;99456.81;1683374;85;27388;-71
2022/08/06 07:43:56;;;;;;;10.98;9.80;;;;;;;28.81;86.98;99458.45;1717904;82;21153;-74
2022/08/06 07:46:28;;;;;;;10.03;9.03;;;;;;;28.85;94.66;99457.09;1716853;82;21537;-73
2022/08/06 07:49:02;;;;;;;10.25;9.30;;;;;;;29.00;92.27;99451.91;1679627;85;21515;-73
2022/08/06 07:51:32;;;;;;;11.30;10.18;;;;;;;29.08;88.99;99456.97;1678034;85;21021;-70
2022/08/06 07:54:02;;;;;;;11.57;10.20;;;;;;;28.70;92.30;99458.92;1728179;81;20980;-72
2022/08/06 07:56:30;;;;;;;11.97;10.30;;;;;;;28.53;97.73;99455.38;1726291;81;21268;-72
2022/08/06 07:58:57;;;;;;;10.00;9.00;;;;;;;28.91;94.06;99458.92;1726995;81;20971;-72
2022/08/06 08:01:24;;;;;;;9.95;8.83;;;;;;;29.07;91.56;99458.13;1718844;82;20936;-70
2022/08/06 08:06:37;;;;;;;16.20;10.10;;;;;;;29.16;91.49;99459.20;1718077;82;21333;-72
2022/08/06 08:09:07;;;;;;;11.95;9.33;;;;;;;29.15;91.85;99458.98;1681279;85;21265;-72
2022/08/06 08:11:40;;;;;;;9.45;7.83;;;;;;;28.84;97.95;99453.55;1713601;82;21129;-73
2022/08/06 08:14:03;;;;;;;10.75;9.88;;;;;;;29.14;90.87;99458.20;1679011;84;20998;-72
2022/08/06 08:16:30;;;;;;;10.43;9.05;;;;;;;29.04;89.58;99463.02;1718062;82;20861;-74
2022/08/06 08:18:57;;;;;;;9.98;9.08;;;;;;;29.23;87.13;99460.66;1681858;85;20960;-74
2022/08/06 08:21:24;;;;;;;10.47;9.47;;;;;;;29.34;84.35;99462.11;1678592;85;21223;-74
2022/08/06 08:23:50;;;;;;;9.30;8.40;;;;;;;29.28;83.57;99458.33;1718387;82;21047;-70
2022/08/06 08:26:17;;;;;;;;;;;;;;;28.75;76.26;99459.17;1682942;85;21337;-71
2022/08/06 08:28:44;;;;;;;8.63;7.75;;;;;;;28.40;82.96;99460.34;1679782;85;20088;-70
2022/08/06 08:31:13;;;;;;;10.50;8.70;;;;;;;28.00;83.35;99457.64;1681489;85;21439;-73
2022/08/06 08:33:40;;;;;;;9.70;8.80;;;;;;;27.75;88.29;99453.13;1718541;82;21243;-73
2022/08/06 08:36:09;;;;;;;10.15;8.95;;;;;;;28.31;91.14;99460.61;1717702;82;23078;-74
2022/08/06 08:38:36;;;;;;;8.93;8.03;;;;;;;28.39;81.45;99459.55;1717200;82;21048;-71
2022/08/06 08:41:13;;;;;;;9.58;8.78;;;;;;;28.60;77.22;99442.45;1681713;85;21072;-73
2022/08/06 08:43:48;;;;;;;10.43;8.40;;;;;;;28.88;78.07;99463.83;1719779;82;20876;-71
2022/08/06 08:46:15;;;;;;;9.40;8.50;;;;;;;29.28;75.73;99468.00;1682804;85;21992;-72
2022/08/06 08:48:41;;;;;;;9.08;7.92;;;;;;;29.59;69.91;99466.44;1678765;85;21139;-71
2022/08/06 08:51:08;;;;;;;10.23;9.18;;;;;;;29.38;71.90;99467.09;1718846;82;20893;-70
2022/08/06 08:53:44;;;;;;;10.20;8.78;;;;;;;29.13;72.59;99460.77;1680581;85;20921;-72
2022/08/06 08:56:12;;;;;;;11.08;9.35;;;;;;;28.59;79.00;99464.90;1718525;82;20956;-74
2022/08/06 08:58:40;;;;;;;10.30;8.78;;;;;;;28.29;78.89;99457.42;1718199;82;21244;-72
2022/08/06 09:01:08;;;;;;;12.37;9.78;;;;;;;28.79;81.53;99456.66;1679470;85;21138;-75
2022/08/06 09:03:38;;;;;;;11.83;10.00;;;;;;;29.22;73.07;99454.90;1718510;82;20980;-75
2022/08/06 09:06:06;;;;;;;9.13;8.30;;;;;;;29.48;69.27;99451.95;1679682;85;21002;-73
2022/08/06 09:08:34;;;;;;;9.18;8.38;;;;;;;30.00;66.16;99449.14;1658547;85;20879;-75
2022/08/06 09:11:00;;;;;;;9.00;8.20;;;;;;;29.92;67.51;99455.83;1684714;84;21254;-72
2022/08/06 09:13:28;;;;;;;11.88;8.65;;;;;;;29.84;65.10;99464.68;1689894;84;21028;-71
2022/08/06 09:15:55;;;;;;;8.10;7.40;;;;;;;29.91;62.14;99465.29;1719108;82;20880;-72
2022/08/06 09:18:23;;;;;;;7.05;6.40;;;;;;;30.09;60.86;99465.41;1718935;82;20884;-72
2022/08/06 09:20:50;;;;;;;8.35;7.65;;;;;;;30.45;60.33;99467.77;1717125;82;21044;-71
2022/08/06 09:23:16;;;;;;;6.50;5.87;;;;;;;30.66;59.30;99464.86;1718135;82;21140;-73
2022/08/06 09:25:49;;;;;;;7.58;6.95;;;;;;;30.71;56.86;99469.41;1677784;85;21064;-70
2022/08/06 09:28:35;;;;;;;8.20;7.33;;;;;;;30.58;54.96;99466.03;1719007;82;20885;-73
2022/08/06 09:31:09;;;;;;;8.37;6.50;;;;;;;30.22;56.28;99465.26;1720611;82;20987;-73
2022/08/06 09:33:39;;;;;;;8.85;6.20;;;;;;;30.09;52.28;99470.34;1718649;82;20876;-70
2022/08/06 09:36:10;;;;;;;9.20;6.83;;;;;;;30.08;52.77;99479.81;1683051;85;21452;-71
2022/08/06 09:38:59;;;;;;;6.92;6.28;;;;;;;30.20;52.54;99478.69;1719174;82;21586;-73
2022/08/06 09:41:29;;;;;;;7.15;6.20;;;;;;;30.44;53.35;99476.45;1719921;82;20996;-71
2022/08/06 09:43:57;;;;;;;8.00;5.87;;;;;;;30.16;52.69;99483.44;1679036;85;21008;-70
2022/08/06 09:46:46;;;;;;;6.55;5.95;;;;;;;30.16;52.63;99477.08;1683574;85;20901;-69
2022/08/06 09:49:14;;;;;;;7.78;6.33;;;;;;;30.26;52.34;99481.33;1718806;82;21113;-71
2022/08/06 09:51:41;;;;;;;7.33;6.72;;;;;;;30.37;51.19;99481.37;1717001;82;20837;-71
2022/08/06 09:54:19;;;;;;;6.37;5.78;;;;;;;30.20;52.58;99479.28;1680970;85;21543;-70
2022/08/06 09:56:49;;;;;;;6.22;5.62;;;;;;;30.46;50.93;99480.42;1678578;85;21013;-71
2022/08/06 09:59:16;;;;;;;6.60;6.03;;;;;;;30.58;52.01;99475.72;1704024;82;20995;-74
2022/08/06 10:01:46;;;;;;;6.65;5.42;;;;;;;30.83;49.21;99473.83;1680725;85;21526;-71
2022/08/06 10:04:27;;;;;;;6.37;5.75;;;;;;;30.74;47.68;99476.14;1718852;82;20968;-69
2022/08/06 10:06:58;;;;;;;7.03;5.85;;;;;;;30.40;49.79;99470.89;1724274;82;20856;-71
2022/08/06 10:09:28;;;;;;;6.28;5.67;;;;;;;30.42;49.87;99469.91;1718975;82;21136;-71
2022/08/06 10:11:55;;;;;;;6.30;5.80;;;;;;;30.31;50.15;99460.19;1719677;82;20987;-72
2022/08/06 10:14:33;;;;;;;6.20;5.53;;;;;;;30.08;50.40;99470.13;1719470;82;21211;-72
2022/08/06 10:17:13;;;;;;;6.37;5.87;;;;;;;29.97;50.68;99466.52;1718927;82;20994;-71
2022/08/06 10:19:42;;;;;;;7.08;6.45;;;;;;;30.09;51.28;99466.19;1719639;82;21481;-71
2022/08/06 10:22:15;;;;;;;7.58;5.90;;;;;;;30.32;52.50;99469.28;1721538;82;20976;-71
2022/08/06 10:24:49;;;;;;;5.75;5.22;;;;;;;30.59;51.83;99471.16;1718524;81;20908;-75
2022/08/06 10:27:22;;;;;;;6.83;5.03;;;;;;;30.37;47.42;99473.66;1716920;82;21237;-72
2022/08/06 10:29:55;;;;;;;5.87;4.87;;;;;;;30.31;46.50;99478.19;1681584;85;21056;-72
2022/08/06 10:32:31;;;;;;;7.95;6.08;;;;;;;30.26;46.70;99470.86;1679157;85;20871;-69
2022/08/06 10:34:59;;;;;;;7.03;5.85;;;;;;;30.27;47.78;99472.43;1709108;82;21004;-70
2022/08/06 10:37:26;;;;;;;8.80;5.72;;;;;;;30.52;48.51;99465.00;1721472;81;20872;-71
2022/08/06 10:39:59;;;;;;;6.57;5.20;;;;;;;30.84;49.20;99467.69;1679344;85;21762;-71
2022/08/06 10:42:26;;;;;;;5.95;5.00;;;;;;;31.15;49.12;99468.92;1678016;85;20962;-70
2022/08/06 10:44:54;;;;;;;6.12;5.00;;;;;;;31.18;47.08;99464.75;1701556;83;21458;-74
2022/08/06 10:47:23;;;;;;;8.15;5.20;;;;;;;30.94;45.18;99471.88;1702974;83;20889;-72
2022/08/06 10:49:50;;;;;;;8.03;5.17;;;;;;;30.89;47.76;99465.34;1695440;83;20952;-72
2022/08/06 10:52:16;;;;;;;6.53;5.87;;;;;;;30.96;47.33;99472.25;1667889;83;21228;-73
2022/08/06 10:54:43;;;;;;;5.62;5.00;;;;;;;30.68;46.72;99459.72;1668527;84;21474;-72
2022/08/06 10:57:12;;;;;;;6.90;6.27;;;;;;;30.55;47.83;99461.47;1685162;85;20934;-73
2022/08/06 10:59:41;;;;;;;6.47;5.55;;;;;;;30.70;48.83;99455.97;1669538;84;21100;-70
2022/08/06 11:02:51;;;;;;;6.28;5.33;;;;;;;30.46;47.35;99461.03;1684446;85;21056;-74
2022/08/06 11:05:21;;;;;;;5.45;4.95;;;;;;;30.16;46.92;99458.52;1699022;83;21560;-72
2022/08/06 11:08:34;;;;;;;6.15;5.20;;;;;;;30.24;47.27;99462.90;1698954;83;20992;-73
2022/08/06 11:11:44;;;;;;;6.83;5.80;;;;;;;30.32;47.62;99464.53;1717574;82;20896;-72
2022/08/06 11:14:11;;;;;;;7.45;5.95;;;;;;;30.46;44.95;99465.79;1720591;82;20892;-72
2022/08/06 11:16:38;;;;;;;6.62;5.53;;;;;;;30.60;47.55;99462.25;1718109;82;21538;-69
2022/08/06 11:19:11;;;;;;;5.80;5.30;;;;;;;30.80;47.41;99459.36;1716970;82;21377;-70
2022/08/06 11:21:46;;;;;;;8.55;5.50;;;;;;;30.69;46.48;99454.38;1717510;82;21059;-70
2022/08/06 11:24:15;;;;;;;10.47;6.00;;;;;;;30.57;48.91;99454.73;1718141;82;21054;-72
2022/08/06 11:26:44;;;;;;;7.42;6.30;;;;;;;30.90;49.34;99450.89;1718644;82;20924;-69
2022/08/06 11:29:15;;;;;;;6.80;6.10;;;;;;;31.29;46.97;99452.30;1718577;82;20876;-69
2022/08/06 11:31:48;;;;;;;7.78;6.85;;;;;;;31.15;46.86;99449.52;1718881;82;21233;-71
2022/08/06 11:34:18;;;;;;;6.65;5.75;;;;;;;30.99;45.72;99452.66;1718287;82;21562;-71
2022/08/06 11:36:52;;;;;;;5.90;5.30;;;;;;;30.98;47.52;99451.09;1720642;82;20900;-69
2022/08/06 11:39:20;;;;;;;9.50;5.80;;;;;;;30.89;46.54;99443.17;1718329;82;20964;-72
2022/08/06 11:41:50;;;;;;;6.45;5.83;;;;;;;30.57;46.74;99444.44;1717321;82;20877;-72